x

North Channel East (45154) Wave Buoy

6:00am - Fri 29th Jul 2016 All times are CDT. -5 hours from GMT.

  • Sig Wave height 1.3ft
  • Peak Period 3s
  • Wind
    13mph, 16mph gusts
  • Sea Temp 69°f
  • Air Temp 64°f
  • Sea Pressure 1018.4mb
  • North Channel East
  • North Channel East

More Historic Weather Station data

Upgrade to MSW Pro to gain access to the past 30 days of data for over 8000 Wavebouys and Weather Stations around the globe.

Join Pro

Comparision Forecast

View Surf forecast
   
Fri 07/29 6:00am 1.3ft 3s 13 16 mph 1018.4mb 69f 64f
5:00am 1.3ft 3s 13 16 mph 1017.9mb 69f 64f
4:00am 1.3ft 3s 13 18 mph 1017.5mb 69f 65f
3:00am 1.6ft 3s 13 18 mph 1017.4mb 69f 65f
2:00am 1.6ft 3s 16 18 mph 1017.4mb 69f 65f
1:00am 1.6ft 3s 18 22 mph 1017.2mb 69f 66f
12:00am 1.6ft 3s 18 20 mph 1016.9mb 70f 67f
Thu 07/28 11:00pm 1ft 2s 20 25 mph 1016.3mb 70f 69f
10:00pm 1ft 2s 13 16 mph 1016.2mb 70f 71f
9:00pm 0.7ft 2s 16 18 mph 1015.7mb 70f 72f
8:00pm 0.3ft 2s 11 13 mph 1015.2mb 71f 73f
7:00pm 0.3ft 2s 9
mph
1014.7mb 71f 72f
6:00pm 0.3ft 2s 7 9 mph 1014.5mb 72f 73f
5:00pm  -  2s 7 9 mph 1014.5mb 72f 73f
4:00pm  -  2s 7
mph
1014.3mb 72f 74f
3:00pm 0.3ft 2s 4 7 mph 1014.3mb 73f 74f
2:00pm 0.3ft 2s 4
mph
1014.5mb 73f 73f
1:00pm 0.3ft 2s 4
mph
1014.7mb 72f 73f
12:00pm 0.7ft 2s 2 4 mph 1015mb 71f 72f
11:00am 0.7ft 2s 7 9 mph 1015.3mb 70f 71f
10:00am 1ft 3s 11 13 mph 1015.5mb 69f 70f
9:00am 1ft 3s 13 16 mph 1015.3mb 69f 69f
8:00am 1ft 2s 13 16 mph 1015.3mb 69f 68f
7:00am 0.7ft 2s 9 11 mph 1015.4mb 69f 68f
6:00am 0.7ft 2s 7 9 mph 1015.2mb 69f 68f
5:00am 0.7ft 4s 4 7 mph 1014.5mb 69f 69f
4:00am 1ft 3s 7 9 mph 1014mb 69f 69f
3:00am 1ft 3s 4 7 mph 1013.9mb 69f 70f
2:00am 0.7ft 3s 4 7 mph 1013.6mb 69f 70f
1:00am 0.7ft 3s 4 7 mph 1013.4mb 69f 69f
12:00am 1ft 3s 9 11 mph 1013.6mb 69f 70f
Wed 07/27 11:00pm 1ft 2s 9 11 mph 1013.3mb 69f 70f
10:00pm 0.7ft 3s 13
mph
1013.2mb 69f 70f
9:00pm 0.7ft 2s 9 11 mph 1012.9mb 69f 71f
8:00pm 0.7ft 2s 9 11 mph 1012.7mb 69f 72f
7:00pm 0.7ft 2s 11 13 mph 1012.8mb 69f 72f
6:00pm 0.7ft 3s 9
mph
1012.6mb 70f 72f
5:00pm 0.7ft 3s 11 13 mph 1012.9mb 70f 73f
4:00pm 0.7ft 3s 11 13 mph 1013mb 70f 73f
3:00pm 1ft 2s 9 11 mph 1013.1mb 70f 71f
2:00pm 1ft 2s 13
mph
1013.7mb 70f 71f
1:00pm 1ft 2s 11 13 mph 1014mb 69f 70f
12:00pm 0.7ft 2s 13 16 mph 1014.2mb 69f 69f
11:00am 0.3ft 2s 9 11 mph 1013.9mb 69f 69f
10:00am 0.3ft 2s 7 9 mph 1013.4mb 69f 68f
9:00am 0.3ft 2s 9 11 mph 1013.5mb 69f 68f
8:00am 0.3ft 2s 4
mph
1013.5mb 69f 68f
7:00am 0.3ft 2s 7 9 mph 1013.7mb 69f 68f
6:00am 0.3ft 2s 4
mph
1013.2mb 69f 68f
5:00am 0.3ft 2s 2 4 mph 1012.8mb 68f 68f
4:00am 0.3ft 2s 7
mph
1012.5mb 68f 68f
3:00am 0.3ft 2s 4 7 mph 1012.4mb 68f 69f
2:00am 0.7ft 2s 4
mph
1012mb 68f 69f
1:00am 0.7ft 3s 9 11 mph 1012.7mb 69f 69f
12:00am 1ft 2s 9 11 mph 1013.6mb 69f 68f
Tue 07/26 11:00pm 0.7ft 2s 11 13 mph 1013.4mb 69f 71f
10:00pm 1ft 3s 9 11 mph 1013.1mb 69f 70f
9:00pm 1ft 3s 11 13 mph 1013.2mb 69f 71f
8:00pm 1ft 3s 11 13 mph 1013mb 69f 72f
7:00pm 1ft 2s 13
mph
1012.9mb 69f 73f
6:00pm 1ft 2s 9 13 mph 1013mb 69f 74f
5:00pm 1ft 2s 13 16 mph 1013.3mb 69f 74f
4:00pm 0.7ft 2s 11 13 mph 1013.4mb 69f 74f
3:00pm 0.7ft 2s 9 11 mph 1013.6mb 69f 73f
2:00pm 0.7ft 2s 9
mph
1014.1mb 69f 71f
1:00pm 0.7ft 3s 9
mph
1014.4mb 69f 70f
12:00pm 1ft 3s 9 11 mph 1014.7mb 68f 70f
11:00am 1.3ft 3s 13
mph
1015.2mb 68f 69f
10:00am 1.3ft 3s 11 13 mph 1015.3mb 68f 68f
9:00am 1.3ft 3s 16 18 mph 1015.8mb 68f 67f
8:00am 1.3ft 3s 13 18 mph 1015.4mb 68f 66f
7:00am 1.3ft 3s 13
mph
1015.3mb 68f 66f
6:00am 1.3ft 3s 13 16 mph 1015.1mb 68f 66f
5:00am 1.6ft 4s 11 13 mph 1015mb 68f 66f
4:00am 2ft 4s 16 18 mph 1014.6mb 68f 66f
3:00am 2ft 4s 13 16 mph 1014.3mb 68f 66f
2:00am 2.5ft 4s 16 18 mph 1014.1mb 68f 66f
1:00am 2.5ft 4s 16 18 mph 1013.9mb 68f 66f
12:00am 2.5ft 4s 18 20 mph 1013.9mb 68f 66f
Mon 07/25 11:00pm 2.5ft 5s 13 18 mph 1013.5mb 68f 67f
10:00pm 3ft 5s 18 20 mph 1013.2mb 68f 68f
9:00pm 3.5ft 4s 18 20 mph 1012.6mb 68f 68f
8:00pm 4ft 5s 20 25 mph 1011.5mb 68f 69f
7:00pm 4.5ft 5s 22 27 mph 1011.5mb 69f 69f
6:00pm 4.5ft 5s 25 29 mph 1011.2mb 69f 69f
5:00pm 4.5ft 5s 22 29 mph 1010.8mb 69f 70f
4:00pm 3.5ft 4s 25 34 mph 1010.6mb 69f 70f
3:00pm 3.5ft 4s 22 25 mph 1010.4mb 69f 71f
2:00pm 2.5ft 4s 22 27 mph 1010.3mb 69f 70f
1:00pm 2.5ft 4s 18 22 mph 1009.9mb 69f 71f